Aeroporto :
LOGIN :

Iscrizione | Disclaimer

   EN    FR    IT 

 










Sommario :    VFR   VFR Marginale   IFR   IFR Intensivo   IFR Molto Intensivo
Visibilità : 
Base nubi : 
>= 8 km
>= 3000ft
5 / 8 km
1000 / 3000 ft
1500m / 5 km
500 / 1000 ft
800 / 1500m
200 / 500 ft
< 800m
< 200 ft
Simboli :   Temporali  Nebbia  Neve Forte  Precipitazioni Forti  Vento > 20 kt
SIGMETs :   Varie  Temporali  Ghiacco  Turbolenza  Onda orograficha  Ceneri Vulcaniche






- Altitudine del aeroporto : 659 ft
- Codice IATA : LGG


EBLG - Liège

ULTIMO METAR :
  • 121920Z 33007KT 9999 FEW045 17/10 Q1024 NOSIG

METARs OBSOLETI :
  • 121850Z 33008KT 300V360 9999 FEW045 18/09 Q1024 NOSIG
  • 121820Z 32008KT 290V350 9999 FEW045 19/09 Q1024 NOSIG
  • 121750Z 33009KT 9999 FEW042 19/10 Q1024 NOSIG
  • 121720Z 32009KT 280V350 9999 FEW042 20/11 Q1023 NOSIG
  • 121650Z 31008KT 280V350 9999 FEW040 20/11 Q1023 NOSIG

TAF TAF EBLG
Valido dal 12 a 18 ore il 14 a 00 ore UTC


121700Z 1218/1324 34006KT 9999 FEW030



MetMap, La meteo Aeronautica in un colpo d'occhio ! - Copyright ORBIFLY Dicembre 2007 - Disclaimer

ORBIFLY MET'MAP TEAM :

Programmazione e sviluppo : Alexandra Zaïnal
Concezione : Baudouin d'Aumeries
Aiuto per la programmazione : Marc-Olivier Méhu
Supporto tecnico e logistico : Manuel Goepfert
Aiuto per la traduzione : Arnaldo La Scala

Contatto : metmap@orbifly.com




FONTI E CREDITI :

   NOAA